Wellston, Michigan
Current Conditions -  °F | °C
As of 12:55 AM on Sunday 23 Nov 2014 (Local Time) from KMBL Reporting Station
Overcast Overcast  
Wind Chill:   Ceiling: 400
Heat Index:   Visibility: 1.5mi
Dew Point:   Wind: 3mph
Humidity: 87%   Direction: 140°SE
Pressure: 29.82"   Gusts: NA
Location:  44.22°N, 85.96°W
Report Text: KMBL 230555Z AUTO 14003KT 1 1/2SM BKN004 OVC012 06/04 A2982 RMK AO1 10070 20040 400701020 57003
Loading
Personal Weather Stations






























Interactive Weather Map New forecast layout! Learn more

10-Day Weather Forecast

Advertisements
Track Severe Weather on mobile